createdAt,value
2018-09-12T00:01:08.023Z,14.91
2018-09-12T00:03:36.183Z,14.85
2018-09-12T00:06:04.280Z,14.81
2018-09-12T00:08:32.427Z,14.77
2018-09-12T00:11:00.463Z,14.73
2018-09-12T00:13:28.577Z,14.69
2018-09-12T00:15:56.679Z,14.65
2018-09-12T00:18:24.788Z,14.58
2018-09-12T00:20:52.895Z,14.51
2018-09-12T00:23:21.010Z,14.51
2018-09-12T00:25:49.104Z,14.58
2018-09-12T00:28:17.224Z,14.48
2018-09-12T00:30:45.347Z,14.40
2018-09-12T00:33:13.463Z,14.37
2018-09-12T00:35:41.555Z,14.36
2018-09-12T00:38:09.633Z,14.36
2018-09-12T00:40:37.696Z,14.35
2018-09-12T00:43:05.801Z,14.34
2018-09-12T00:45:34.923Z,14.31
2018-09-12T00:48:03.023Z,14.28
2018-09-12T00:50:31.113Z,14.31
2018-09-12T00:52:59.212Z,14.26
2018-09-12T00:55:27.287Z,14.33
2018-09-12T00:57:55.403Z,14.30
2018-09-12T01:00:23.550Z,14.25
2018-09-12T01:02:51.659Z,14.19
2018-09-12T01:05:19.739Z,14.15
2018-09-12T01:07:47.830Z,14.19
2018-09-12T01:10:15.924Z,14.33
2018-09-12T01:12:45.071Z,14.24
2018-09-12T01:15:13.146Z,14.18
2018-09-12T01:17:41.250Z,14.14
2018-09-12T01:20:09.349Z,14.17
2018-09-12T01:22:37.706Z,14.06
2018-09-12T01:25:06.186Z,14.08
2018-09-12T01:27:34.293Z,14.24
2018-09-12T01:30:02.415Z,14.38
2018-09-12T01:32:30.512Z,14.34
2018-09-12T01:34:58.595Z,14.21
2018-09-12T01:37:26.836Z,14.19
2018-09-12T01:39:54.928Z,14.02
2018-09-12T01:42:23.020Z,14.01
2018-09-12T01:44:51.255Z,13.92
2018-09-12T01:47:19.343Z,13.93
2018-09-12T01:49:47.793Z,13.88
2018-09-12T01:52:15.912Z,13.82
2018-09-12T01:54:43.988Z,13.80
2018-09-12T01:57:12.069Z,13.79
2018-09-12T01:59:40.119Z,13.76
2018-09-12T02:02:08.238Z,13.66
2018-09-12T02:04:36.345Z,13.80
2018-09-12T02:07:04.435Z,14.01
2018-09-12T02:09:32.528Z,14.02
2018-09-12T02:12:00.604Z,14.01
2018-09-12T02:14:28.691Z,13.96
2018-09-12T02:16:56.774Z,13.90
2018-09-12T02:19:24.864Z,13.77
2018-09-12T02:21:53.105Z,13.82
2018-09-12T02:24:21.248Z,13.96
2018-09-12T02:26:49.338Z,13.89
2018-09-12T02:29:17.468Z,13.75
2018-09-12T02:31:45.576Z,13.57
2018-09-12T02:34:13.643Z,13.52
2018-09-12T02:36:41.740Z,13.54
2018-09-12T02:39:09.874Z,13.49
2018-09-12T02:41:38.661Z,13.64
2018-09-12T02:44:06.824Z,13.63
2018-09-12T02:46:34.954Z,13.52
2018-09-12T02:49:03.239Z,13.49
2018-09-12T02:51:31.363Z,13.47
2018-09-12T02:53:59.459Z,13.47
2018-09-12T02:56:27.591Z,13.43
2018-09-12T02:58:55.751Z,13.39
2018-09-12T03:01:23.925Z,13.30
2018-09-12T03:03:52.035Z,13.18
2018-09-12T03:06:20.267Z,13.17
2018-09-12T03:08:48.504Z,13.22
2018-09-12T03:11:16.693Z,13.09
2018-09-12T03:13:44.795Z,13.07
2018-09-12T03:16:12.905Z,13.02
2018-09-12T03:18:41.074Z,12.97
2018-09-12T03:21:09.950Z,12.94
2018-09-12T03:23:38.010Z,12.84
2018-09-12T03:26:06.123Z,12.80
2018-09-12T03:28:34.232Z,12.81
2018-09-12T03:31:02.646Z,12.88
2018-09-12T03:33:30.623Z,12.88
2018-09-12T03:35:58.734Z,12.85
2018-09-12T03:38:26.855Z,12.79
2018-09-12T03:40:54.970Z,12.78
2018-09-12T03:43:23.126Z,12.79
2018-09-12T03:45:51.292Z,12.79
2018-09-12T03:48:19.398Z,12.81
2018-09-12T03:50:47.500Z,12.82
2018-09-12T03:53:15.610Z,12.78
2018-09-12T03:55:43.715Z,12.79
2018-09-12T03:58:11.860Z,12.75
2018-09-12T04:00:41.030Z,12.75
2018-09-12T04:03:09.184Z,12.74
2018-09-12T04:05:37.282Z,12.78
2018-09-12T04:08:05.414Z,12.81
2018-09-12T04:10:33.522Z,12.73
2018-09-12T04:13:01.696Z,12.70
2018-09-12T04:15:29.812Z,12.69
2018-09-12T04:17:57.924Z,12.66
2018-09-12T04:20:26.027Z,12.61
2018-09-12T04:22:54.152Z,12.59
2018-09-12T04:25:22.259Z,12.58
2018-09-12T04:27:50.377Z,12.56
2018-09-12T04:30:18.470Z,12.63
2018-09-12T04:32:46.568Z,12.66
2018-09-12T04:35:14.726Z,12.61
2018-09-12T04:37:42.827Z,12.53
2018-09-12T04:40:10.943Z,12.48
2018-09-12T04:42:39.045Z,12.54
2018-09-12T04:45:07.191Z,12.53
2018-09-12T04:47:35.287Z,12.54
2018-09-12T04:50:03.432Z,12.53
2018-09-12T04:52:31.611Z,12.56
2018-09-12T04:54:59.722Z,12.59
2018-09-12T04:57:27.792Z,12.55
2018-09-12T04:59:55.905Z,12.51
2018-09-12T05:02:24.000Z,12.50
2018-09-12T05:04:52.191Z,12.48
2018-09-12T05:07:20.319Z,12.54
2018-09-12T05:09:48.416Z,12.63
2018-09-12T05:12:16.532Z,12.75
2018-09-12T05:14:44.640Z,12.86
2018-09-12T05:17:12.736Z,12.81
2018-09-12T05:19:40.846Z,12.80
2018-09-12T05:22:09.220Z,12.71
2018-09-12T05:24:37.330Z,12.60
2018-09-12T05:27:05.607Z,12.64
2018-09-12T05:29:33.723Z,12.87
2018-09-12T05:32:01.917Z,12.85
2018-09-12T05:34:30.047Z,12.88
2018-09-12T05:36:58.169Z,12.92
2018-09-12T05:39:26.293Z,12.97
2018-09-12T05:41:54.385Z,12.94
2018-09-12T05:44:22.471Z,13.00
2018-09-12T05:46:50.555Z,13.13
2018-09-12T05:49:18.628Z,13.21
2018-09-12T05:51:46.718Z,13.32
2018-09-12T05:54:15.768Z,13.43
2018-09-12T05:56:43.850Z,13.60
2018-09-12T05:59:11.966Z,14.19
2018-09-12T06:01:40.041Z,14.75
2018-09-12T06:04:08.155Z,15.21
2018-09-12T06:06:36.289Z,15.08
2018-09-12T06:09:06.052Z,14.81
2018-09-12T06:11:34.229Z,14.76
2018-09-12T06:14:02.404Z,14.70
2018-09-12T06:16:30.435Z,14.37
2018-09-12T06:18:58.566Z,14.49
2018-09-12T06:21:26.924Z,14.59
2018-09-12T06:23:55.024Z,14.72
2018-09-12T06:26:23.124Z,14.77
2018-09-12T06:28:51.200Z,14.92
2018-09-12T06:31:19.295Z,15.10
2018-09-12T06:33:47.572Z,15.18
2018-09-12T06:36:15.687Z,15.24
2018-09-12T06:38:43.847Z,15.43
2018-09-12T06:41:11.875Z,15.59
2018-09-12T06:43:40.088Z,15.59
2018-09-12T06:46:08.219Z,15.49
2018-09-12T06:48:36.303Z,15.63
2018-09-12T06:51:04.406Z,15.75
2018-09-12T06:53:32.490Z,15.84
2018-09-12T06:56:00.587Z,16.04
2018-09-12T06:58:28.675Z,16.23
2018-09-12T07:00:56.818Z,16.41
2018-09-12T07:03:24.850Z,16.58
2018-09-12T07:05:52.920Z,16.76
2018-09-12T07:08:21.067Z,16.87
2018-09-12T07:10:49.163Z,17.00
2018-09-12T07:13:17.266Z,17.22
2018-09-12T07:15:45.443Z,17.47
2018-09-12T07:18:13.560Z,17.70
2018-09-12T07:20:41.678Z,17.66
2018-09-12T07:23:09.795Z,17.75
2018-09-12T07:25:37.947Z,17.80
2018-09-12T07:28:06.140Z,17.88
2018-09-12T07:30:34.263Z,18.05
2018-09-12T07:33:02.280Z,18.21
2018-09-12T07:35:30.357Z,18.43
2018-09-12T07:37:58.475Z,18.61
2018-09-12T07:40:26.630Z,18.80
2018-09-12T07:42:54.719Z,18.90
2018-09-12T07:45:22.797Z,19.15
2018-09-12T07:47:51.009Z,19.25
2018-09-12T07:50:19.095Z,19.37
2018-09-12T07:52:47.186Z,19.50
2018-09-12T07:55:15.273Z,19.60
2018-09-12T07:57:43.346Z,19.85
2018-09-12T08:00:11.515Z,19.92
2018-09-12T08:02:39.546Z,20.23
2018-09-12T08:05:07.733Z,20.50
2018-09-12T08:07:35.731Z,20.73
2018-09-12T08:10:03.902Z,20.99
2018-09-12T08:12:32.000Z,21.28
2018-09-12T08:15:01.010Z,21.62
2018-09-12T08:17:29.127Z,21.97
2018-09-12T08:19:57.234Z,22.14
2018-09-12T08:22:25.465Z,22.26
2018-09-12T08:24:53.561Z,22.40
2018-09-12T08:27:21.631Z,22.52
2018-09-12T08:29:49.723Z,22.71
2018-09-12T08:32:17.871Z,22.75
2018-09-12T08:34:45.971Z,22.88
2018-09-12T08:37:14.071Z,23.21
2018-09-12T08:39:42.151Z,23.38
2018-09-12T08:42:10.259Z,23.44
2018-09-12T08:44:38.334Z,23.47
2018-09-12T08:47:06.451Z,23.52
2018-09-12T08:49:34.545Z,23.83
2018-09-12T08:52:02.991Z,23.96
2018-09-12T08:54:31.095Z,24.05
2018-09-12T08:56:59.220Z,24.13
2018-09-12T08:59:27.311Z,24.15
2018-09-12T09:02:02.119Z,24.43
2018-09-12T09:04:30.224Z,24.43
2018-09-12T09:06:58.306Z,24.61
2018-09-12T09:09:26.400Z,24.63
2018-09-12T09:11:55.001Z,24.66
2018-09-12T09:14:23.104Z,24.95
2018-09-12T09:16:51.187Z,25.07
2018-09-12T09:19:19.296Z,25.28
2018-09-12T09:21:47.364Z,25.42
2018-09-12T09:24:15.499Z,25.45
2018-09-12T09:26:43.613Z,25.57
2018-09-12T09:29:11.739Z,25.62
2018-09-12T09:31:39.856Z,25.74
2018-09-12T09:34:07.932Z,25.78
2018-09-12T09:36:36.004Z,25.86
2018-09-12T09:39:06.243Z,26.08
2018-09-12T09:41:34.362Z,26.23
2018-09-12T09:44:02.528Z,26.36
2018-09-12T09:46:30.606Z,26.36
2018-09-12T09:48:58.731Z,26.54
2018-09-12T09:51:26.837Z,26.69
2018-09-12T09:53:54.938Z,26.95
2018-09-12T09:56:23.112Z,26.98
2018-09-12T09:58:51.221Z,26.98
2018-09-12T10:01:24.656Z,27.14
2018-09-12T10:03:58.187Z,27.27
2018-09-12T10:07:04.180Z,27.12
2018-09-12T10:09:33.477Z,27.43
2018-09-12T10:12:02.577Z,27.61
2018-09-12T10:14:30.669Z,27.60
2018-09-12T10:16:58.801Z,27.62
2018-09-12T10:19:26.875Z,27.89
2018-09-12T10:21:54.992Z,28.18
2018-09-12T10:24:23.216Z,28.32
2018-09-12T10:26:51.284Z,28.06
2018-09-12T10:29:19.462Z,28.13
2018-09-12T10:31:47.984Z,28.16
2018-09-12T10:34:16.120Z,28.30
2018-09-12T10:36:44.224Z,28.48
2018-09-12T10:39:13.725Z,28.50
2018-09-12T10:41:42.616Z,28.46
2018-09-12T10:44:10.927Z,28.71
2018-09-12T10:46:39.237Z,28.79
2018-09-12T10:49:07.756Z,28.76
2018-09-12T10:51:35.839Z,28.70
2018-09-12T10:54:03.948Z,28.89
2018-09-12T10:56:38.927Z,28.95
2018-09-12T10:59:07.134Z,28.94
2018-09-12T11:01:35.228Z,28.90
2018-09-12T11:04:03.339Z,29.02
2018-09-12T11:06:31.443Z,29.10
2018-09-12T11:08:59.531Z,29.24
2018-09-12T11:11:28.299Z,29.09
2018-09-12T11:13:57.664Z,29.13
2018-09-12T11:16:25.780Z,29.42
2018-09-12T11:18:53.970Z,29.42
2018-09-12T11:21:22.075Z,29.49
2018-09-12T11:23:50.271Z,29.46
2018-09-12T11:26:18.281Z,29.41
2018-09-12T11:28:46.393Z,29.52
2018-09-12T11:31:14.515Z,29.45
2018-09-12T11:33:43.018Z,29.49
2018-09-12T11:36:12.161Z,29.64
2018-09-12T11:38:40.305Z,29.89
2018-09-12T11:41:08.674Z,29.97
2018-09-12T11:43:36.757Z,29.85
2018-09-12T11:46:04.887Z,29.87
2018-09-12T11:48:32.970Z,29.74
2018-09-12T11:51:01.096Z,29.70
2018-09-12T11:53:29.529Z,29.92
2018-09-12T11:55:57.641Z,29.98
2018-09-12T11:58:25.776Z,30.09
2018-09-12T12:00:53.998Z,30.15
2018-09-12T12:03:22.119Z,30.19
2018-09-12T12:05:50.211Z,30.13
2018-09-12T12:08:18.372Z,30.05
2018-09-12T12:10:46.465Z,30.14
2018-09-12T12:13:14.615Z,30.09
2018-09-12T12:15:42.763Z,30.38
2018-09-12T12:18:10.868Z,30.21
2018-09-12T12:20:40.037Z,30.21
2018-09-12T12:23:08.213Z,30.14
2018-09-12T12:25:36.271Z,30.22
2018-09-12T12:28:04.391Z,30.25
2018-09-12T12:30:32.519Z,30.29
2018-09-12T12:33:00.690Z,30.41
2018-09-12T12:35:28.903Z,30.60
2018-09-12T12:37:56.952Z,30.54
2018-09-12T12:40:25.040Z,30.43
2018-09-12T12:42:53.148Z,30.55
2018-09-12T12:45:21.265Z,30.60
2018-09-12T12:47:49.363Z,30.74
2018-09-12T12:50:17.451Z,30.79
2018-09-12T12:52:45.675Z,30.63
2018-09-12T12:55:13.837Z,30.59
2018-09-12T12:57:41.955Z,30.74
2018-09-12T13:00:10.208Z,30.70
2018-09-12T13:02:38.317Z,30.76
2018-09-12T13:05:06.492Z,30.44
2018-09-12T13:07:34.591Z,30.64
2018-09-12T13:10:02.850Z,30.84
2018-09-12T13:12:31.964Z,30.64
2018-09-12T13:15:00.064Z,30.74
2018-09-12T13:17:28.164Z,30.76
2018-09-12T13:19:56.310Z,30.69
2018-09-12T13:22:24.445Z,30.80
2018-09-12T13:24:52.594Z,30.78
2018-09-12T13:27:20.802Z,30.86
2018-09-12T13:29:48.906Z,30.77
2018-09-12T13:32:16.991Z,30.46
2018-09-12T13:34:45.105Z,30.58
2018-09-12T13:37:13.207Z,30.86
2018-09-12T13:39:41.324Z,31.01
2018-09-12T13:42:09.437Z,30.79
2018-09-12T13:44:37.560Z,30.79
2018-09-12T13:47:05.733Z,30.84
2018-09-12T13:49:33.846Z,30.78
2018-09-12T13:52:01.940Z,30.66
2018-09-12T13:54:30.088Z,30.87
2018-09-12T13:56:58.209Z,30.95
2018-09-12T13:59:26.312Z,30.70
2018-09-12T14:01:54.411Z,31.01
2018-09-12T14:04:23.204Z,31.11
2018-09-12T14:06:52.207Z,30.70
2018-09-12T14:09:20.327Z,30.72
2018-09-12T14:11:48.417Z,30.75
2018-09-12T14:14:17.128Z,30.81
2018-09-12T14:16:45.336Z,30.78
2018-09-12T14:19:13.452Z,30.90
2018-09-12T14:21:41.580Z,31.11
2018-09-12T14:24:09.735Z,31.25
2018-09-12T14:26:37.831Z,31.28
2018-09-12T14:29:05.931Z,31.18
2018-09-12T14:31:34.548Z,31.01
2018-09-12T14:34:02.667Z,31.14
2018-09-12T14:36:30.852Z,31.11
2018-09-12T14:38:59.026Z,31.00
2018-09-12T14:41:27.100Z,30.72
2018-09-12T14:43:55.226Z,30.73
2018-09-12T14:46:23.336Z,30.69
2018-09-12T14:48:58.193Z,30.74
2018-09-12T14:51:26.291Z,30.66
2018-09-12T14:53:54.508Z,30.58
2018-09-12T14:56:22.624Z,30.62
2018-09-12T14:58:51.008Z,30.48
2018-09-12T15:01:19.099Z,30.48
2018-09-12T15:03:47.271Z,30.54
2018-09-12T15:06:15.394Z,30.64
2018-09-12T15:08:43.490Z,30.68
2018-09-12T15:11:11.599Z,30.72
2018-09-12T15:13:39.704Z,30.86
2018-09-12T15:16:07.820Z,30.73
2018-09-12T15:18:36.123Z,30.84
2018-09-12T15:21:04.295Z,30.96
2018-09-12T15:23:32.425Z,30.40
2018-09-12T15:26:00.539Z,30.43
2018-09-12T15:28:28.617Z,30.10
2018-09-12T15:30:56.728Z,30.22
2018-09-12T15:33:24.824Z,30.27
2018-09-12T15:35:52.999Z,30.32
2018-09-12T15:38:21.103Z,30.23
2018-09-12T15:40:49.279Z,30.41
2018-09-12T15:43:17.468Z,30.15
2018-09-12T15:45:45.656Z,30.18
2018-09-12T15:48:13.736Z,30.21
2018-09-12T15:50:41.903Z,29.80
2018-09-12T15:53:10.016Z,29.60
2018-09-12T15:55:38.177Z,29.54
2018-09-12T15:58:06.271Z,29.39
2018-09-12T16:00:34.365Z,29.44
2018-09-12T16:03:02.515Z,29.56
2018-09-12T16:05:30.724Z,29.57
2018-09-12T16:07:59.197Z,29.57
2018-09-12T16:10:27.332Z,29.55
2018-09-12T16:12:55.432Z,29.36
2018-09-12T16:15:23.585Z,29.35
2018-09-12T16:17:51.646Z,29.39
2018-09-12T16:20:19.777Z,29.37
2018-09-12T16:22:47.911Z,29.32
2018-09-12T16:25:16.023Z,29.38
2018-09-12T16:27:44.123Z,29.31
2018-09-12T16:30:12.374Z,29.13
2018-09-12T16:32:40.543Z,29.06
2018-09-12T16:35:08.818Z,28.98
2018-09-12T16:37:36.924Z,28.98
2018-09-12T16:40:05.835Z,28.87
2018-09-12T16:42:34.243Z,28.84
2018-09-12T16:45:02.333Z,28.79
2018-09-12T16:47:30.448Z,28.77
2018-09-12T16:49:58.535Z,28.68
2018-09-12T16:52:26.635Z,28.67
2018-09-12T16:54:54.724Z,28.62
2018-09-12T16:57:22.841Z,28.61
2018-09-12T16:59:50.937Z,28.53
2018-09-12T17:02:19.088Z,28.34
2018-09-12T17:04:47.152Z,28.32
2018-09-12T17:07:15.250Z,28.31
2018-09-12T17:09:43.306Z,28.21
2018-09-12T17:12:11.379Z,28.11
2018-09-12T17:14:39.917Z,28.10
2018-09-12T17:17:08.051Z,28.01
2018-09-12T17:19:36.222Z,27.95
2018-09-12T17:22:04.344Z,27.74
2018-09-12T17:24:32.431Z,27.61
2018-09-12T17:27:00.501Z,27.50
2018-09-12T17:29:28.595Z,27.37
2018-09-12T17:31:56.686Z,27.26
2018-09-12T17:34:24.784Z,27.06
2018-09-12T17:36:52.896Z,26.98
2018-09-12T17:39:21.027Z,26.89
2018-09-12T17:41:49.143Z,26.78
2018-09-12T17:44:17.245Z,26.63
2018-09-12T17:46:45.347Z,26.55
2018-09-12T17:49:13.451Z,26.43
2018-09-12T17:51:41.559Z,26.23
2018-09-12T17:54:09.731Z,25.99
2018-09-12T17:56:37.840Z,25.88
2018-09-12T17:59:05.936Z,25.73
2018-09-12T18:01:34.027Z,25.59
2018-09-12T18:04:03.080Z,25.54
2018-09-12T18:06:31.216Z,25.53
2018-09-12T18:08:59.427Z,25.43
2018-09-12T18:11:27.969Z,25.23
2018-09-12T18:13:56.126Z,25.10
2018-09-12T18:16:25.123Z,25.02
2018-09-12T18:18:53.247Z,24.94
2018-09-12T18:21:21.619Z,24.86
2018-09-12T18:23:49.718Z,24.80
2018-09-12T18:26:17.851Z,24.74
2018-09-12T18:28:45.957Z,24.66
2018-09-12T18:31:14.159Z,24.48
2018-09-12T18:33:42.808Z,24.51
2018-09-12T18:36:11.063Z,24.50
2018-09-12T18:38:39.112Z,24.43
2018-09-12T18:41:07.219Z,24.38
2018-09-12T18:43:35.344Z,24.32
2018-09-12T18:46:03.443Z,24.32
2018-09-12T18:48:31.544Z,24.23
2018-09-12T18:51:03.813Z,24.24
2018-09-12T18:53:31.927Z,24.22
2018-09-12T18:56:00.045Z,24.17
2018-09-12T18:58:28.174Z,24.14
2018-09-12T19:00:56.284Z,24.11
2018-09-12T19:03:24.449Z,23.99
2018-09-12T19:05:52.490Z,23.82
2018-09-12T19:08:20.674Z,23.81
2018-09-12T19:10:49.227Z,23.78
2018-09-12T19:13:17.427Z,23.66
2018-09-12T19:15:45.690Z,23.59
2018-09-12T19:18:14.536Z,23.55
2018-09-12T19:20:42.879Z,23.49
2018-09-12T19:23:10.988Z,23.47
2018-09-12T19:25:39.148Z,23.38
2018-09-12T19:28:07.228Z,23.29
2018-09-12T19:30:35.390Z,23.21
2018-09-12T19:33:03.496Z,23.04
2018-09-12T19:35:31.621Z,22.90
2018-09-12T19:38:00.933Z,22.92
2018-09-12T19:40:29.040Z,23.01
2018-09-12T19:42:57.166Z,23.02
2018-09-12T19:45:25.352Z,23.01
2018-09-12T19:47:53.628Z,23.07
2018-09-12T19:50:21.733Z,23.08
2018-09-12T19:52:49.876Z,23.09
2018-09-12T19:55:18.014Z,23.08
2018-09-12T19:57:46.944Z,23.07
2018-09-12T20:00:17.280Z,23.06
2018-09-12T20:02:46.200Z,23.00
2018-09-12T20:05:14.339Z,22.99
2018-09-12T20:07:42.501Z,22.93
2018-09-12T20:10:10.643Z,22.92
2018-09-12T20:12:38.745Z,22.89
2018-09-12T20:15:07.000Z,22.80
2018-09-12T20:17:35.144Z,22.61
2018-09-12T20:20:03.256Z,22.24
2018-09-12T20:22:31.559Z,22.16
2018-09-12T20:24:59.671Z,22.07
2018-09-12T20:27:27.871Z,21.93
2018-09-12T20:29:55.999Z,21.96
2018-09-12T20:32:24.103Z,21.93
2018-09-12T20:34:52.306Z,21.78
2018-09-12T20:37:20.427Z,21.76
2018-09-12T20:39:48.546Z,21.66
2018-09-12T20:42:16.652Z,21.84
2018-09-12T20:44:44.784Z,21.99
2018-09-12T20:47:12.909Z,22.01
2018-09-12T20:49:41.218Z,22.07
2018-09-12T20:52:09.384Z,22.08
2018-09-12T20:54:37.523Z,22.02
2018-09-12T20:57:05.755Z,22.02
2018-09-12T20:59:33.959Z,21.97
2018-09-12T21:02:02.144Z,21.94
2018-09-12T21:04:30.245Z,21.91
2018-09-12T21:06:58.470Z,21.89
2018-09-12T21:09:26.563Z,21.86
2018-09-12T21:11:54.663Z,21.85
2018-09-12T21:14:22.779Z,21.89
2018-09-12T21:16:50.883Z,21.82
2018-09-12T21:19:19.602Z,21.78
2018-09-12T21:21:47.719Z,21.75
2018-09-12T21:24:15.962Z,21.74
2018-09-12T21:26:44.047Z,21.64
2018-09-12T21:29:12.135Z,21.58
2018-09-12T21:31:41.063Z,21.58
2018-09-12T21:34:09.198Z,21.68
2018-09-12T21:36:37.311Z,21.53
2018-09-12T21:39:08.447Z,21.56
2018-09-12T21:41:36.547Z,21.55
2018-09-12T21:44:04.656Z,21.54
2018-09-12T21:46:32.820Z,21.50
2018-09-12T21:49:00.932Z,21.50
2018-09-12T21:51:29.348Z,21.48
2018-09-12T21:53:57.510Z,21.41
2018-09-12T21:56:25.642Z,21.28
2018-09-12T21:58:53.819Z,21.23
2018-09-12T22:13:11.102Z,20.91
2018-09-12T22:15:39.426Z,20.89
2018-09-12T22:18:07.608Z,20.83
2018-09-12T22:20:35.747Z,20.63
2018-09-12T22:23:03.950Z,20.54
2018-09-12T22:25:32.078Z,20.55
2018-09-12T22:28:00.182Z,20.48
2018-09-12T22:30:28.271Z,20.43
2018-09-12T22:32:56.649Z,20.40
2018-09-12T22:35:24.746Z,20.35
2018-09-12T22:37:53.643Z,20.26
2018-09-12T22:40:21.727Z,20.29
2018-09-12T22:42:49.837Z,20.36
2018-09-12T22:45:17.945Z,20.28
2018-09-12T22:47:46.084Z,20.22
2018-09-12T22:50:14.187Z,20.18
2018-09-12T22:52:42.270Z,20.19
2018-09-12T22:55:10.367Z,20.11
2018-09-12T22:57:38.439Z,20.08
2018-09-12T23:00:07.934Z,19.99
2018-09-12T23:02:36.007Z,19.93
2018-09-12T23:05:04.096Z,19.77
2018-09-12T23:07:32.158Z,19.73
2018-09-12T23:10:00.232Z,19.78
2018-09-12T23:12:28.303Z,19.72
2018-09-12T23:14:56.384Z,19.53
2018-09-12T23:17:25.230Z,19.57
2018-09-12T23:19:53.543Z,19.69
2018-09-12T23:22:21.627Z,19.65
2018-09-12T23:24:49.712Z,19.61
2018-09-12T23:27:17.790Z,19.47
2018-09-12T23:29:45.903Z,19.48
2018-09-12T23:32:14.110Z,19.43
2018-09-12T23:34:42.207Z,19.40
2018-09-12T23:37:10.295Z,19.22
2018-09-12T23:39:38.460Z,19.35
2018-09-12T23:42:06.531Z,19.43
2018-09-12T23:44:34.614Z,19.34
2018-09-12T23:47:02.719Z,19.24
2018-09-12T23:49:30.780Z,19.17
2018-09-12T23:51:58.877Z,19.16
2018-09-12T23:54:26.966Z,19.20
2018-09-12T23:56:55.135Z,19.21
2018-09-12T23:59:23.223Z,19.13
